Time;durP1;ratioP1;P1;durP2;ratioP2;P2;SDS_P1;SDS_P2;PMS_P1;PMS_P2;Temp;Humidity;BMP_temperature;BMP_pressure;BME280_temperature;BME280_humidity;BME280_pressure;Samples;Min_cycle;Max_cycle;Signal;HPM_P1;HPM_P2
2020/12/09 00:00:47;;;;;;;22.92;17.83;;;9.60;99.90;;;;;;5072801;28;20201;-78
2020/12/09 00:03:38;;;;;;;22.52;16.70;;;9.50;99.90;;;;;;5072452;28;20194;-81
2020/12/09 00:06:04;;;;;;;22.83;17.70;;;9.60;99.90;;;;;;5072659;28;20294;-79
2020/12/09 00:09:14;;;;;;;21.63;17.10;;;9.60;99.90;;;;;;5072698;28;20652;-77
2020/12/09 00:11:47;;;;;;;23.70;15.00;;;9.50;99.90;;;;;;5072520;28;20273;-80
2020/12/09 00:14:13;;;;;;;19.75;15.07;;;9.40;99.90;;;;;;5072610;28;20213;-79
2020/12/09 00:20:03;;;;;;;21.10;14.50;;;9.30;99.90;;;;;;5072614;28;20240;-78
2020/12/09 00:25:51;;;;;;;18.90;15.07;;;9.20;99.90;;;;;;5072757;28;20223;-78
2020/12/09 00:28:18;;;;;;;18.20;14.23;;;9.20;99.90;;;;;;5073370;28;20198;-77
2020/12/09 00:30:44;;;;;;;17.98;14.93;;;9.20;99.90;;;;;;5076178;28;20205;-77
2020/12/09 00:33:23;;;;;;;19.48;14.55;;;9.20;99.90;;;;;;5075604;28;20194;-80
2020/12/09 00:35:49;;;;;;;17.25;14.55;;;9.20;99.90;;;;;;5075554;28;20703;-77
2020/12/09 00:38:15;;;;;;;18.40;15.52;;;9.20;99.90;;;;;;5075886;28;20206;-77
2020/12/09 00:40:43;;;;;;;16.17;13.90;;;9.20;99.90;;;;;;5075923;28;20225;-79
2020/12/09 00:43:10;;;;;;;17.73;13.80;;;9.20;99.90;;;;;;5075758;28;20190;-77
2020/12/09 00:45:37;;;;;;;18.13;13.10;;;9.30;99.90;;;;;;5075914;28;20194;-77
2020/12/09 00:51:26;;;;;;;19.60;14.90;;;9.20;99.90;;;;;;5075526;28;20186;-77
2020/12/09 00:53:52;;;;;;;21.60;14.20;;;9.20;99.90;;;;;;5075825;28;20201;-78
2020/12/09 00:56:19;;;;;;;17.17;13.93;;;9.20;99.90;;;;;;5075583;28;20201;-77
2020/12/09 01:02:08;;;;;;;20.13;14.82;;;9.10;99.90;;;;;;5075629;28;20185;-77
2020/12/09 01:04:35;;;;;;;16.05;13.35;;;9.00;99.90;;;;;;5075357;28;20664;-77
2020/12/09 01:07:01;;;;;;;19.63;16.15;;;9.00;99.90;;;;;;5075408;28;20218;-78
2020/12/09 01:09:27;;;;;;;18.77;14.60;;;9.00;99.90;;;;;;5075360;28;20202;-78
2020/12/09 01:11:53;;;;;;;19.48;14.32;;;9.00;99.90;;;;;;5075166;28;20202;-77
2020/12/09 01:14:29;;;;;;;16.58;13.02;;;9.00;99.90;;;;;;5074870;28;20194;-77
2020/12/09 01:17:39;;;;;;;18.25;13.40;;;9.00;99.90;;;;;;5074732;28;20211;-78
2020/12/09 01:20:09;;;;;;;17.42;13.43;;;9.00;99.90;;;;;;5074934;28;20233;-77
2020/12/09 01:22:35;;;;;;;18.85;16.15;;;9.00;99.90;;;;;;5075153;28;20194;-80
2020/12/09 01:25:02;;;;;;;16.90;13.73;;;9.10;99.90;;;;;;5074930;28;20195;-77
2020/12/09 01:27:28;;;;;;;15.88;12.77;;;9.10;99.90;;;;;;5075054;28;20204;-77
2020/12/09 01:29:55;;;;;;;19.23;14.38;;;9.10;99.90;;;;;;5075111;28;20204;-78
2020/12/09 01:32:21;;;;;;;16.85;14.65;;;9.20;99.90;;;;;;5075072;28;20197;-78
2020/12/09 01:34:47;;;;;;;20.23;15.43;;;9.30;99.90;;;;;;5074827;28;20202;-78
2020/12/09 01:37:15;;;;;;;20.23;14.45;;;9.20;99.90;;;;;;5074821;28;20229;-80
2020/12/09 01:39:41;;;;;;;22.92;14.30;;;9.20;99.90;;;;;;5074167;28;20689;-77
2020/12/09 01:42:08;;;;;;;17.58;13.35;;;9.20;99.90;;;;;;5074866;28;20198;-77
2020/12/09 01:44:34;;;;;;;17.65;13.57;;;9.20;99.90;;;;;;5074697;28;20194;-79
2020/12/09 01:47:04;;;;;;;15.20;13.05;;;9.20;99.90;;;;;;5074614;28;20194;-77
2020/12/09 01:49:30;;;;;;;17.15;13.40;;;9.20;99.90;;;;;;5074534;28;20205;-78
2020/12/09 01:51:58;;;;;;;19.52;15.45;;;9.20;99.90;;;;;;5074399;28;20743;-76
2020/12/09 01:54:25;;;;;;;18.67;14.80;;;9.20;99.90;;;;;;5074397;28;20502;-77
2020/12/09 01:57:08;;;;;;;18.63;14.38;;;9.10;99.90;;;;;;5074516;28;20194;-80
2020/12/09 01:59:36;;;;;;;18.27;13.40;;;9.20;99.90;;;;;;5074354;28;20257;-80
2020/12/09 02:02:02;;;;;;;16.63;13.45;;;9.20;99.90;;;;;;5074333;28;20199;-77
2020/12/09 02:04:29;;;;;;;15.75;12.75;;;9.20;99.90;;;;;;5074310;28;20605;-78
2020/12/09 02:06:56;;;;;;;24.05;13.95;;;9.20;99.90;;;;;;5074405;28;20214;-79
2020/12/09 02:09:23;;;;;;;21.17;14.13;;;9.20;99.90;;;;;;5074322;28;20194;-78
2020/12/09 02:11:51;;;;;;;15.90;13.35;;;9.20;99.90;;;;;;5074047;28;20653;-77
2020/12/09 02:14:17;;;;;;;15.35;13.02;;;9.20;99.90;;;;;;5073981;28;20202;-77
2020/12/09 02:16:48;;;;;;;18.73;13.75;;;9.30;99.90;;;;;;5074000;28;20202;-77
2020/12/09 02:19:14;;;;;;;20.85;15.13;;;9.30;99.90;;;;;;5073838;28;20681;-80
2020/12/09 02:21:41;;;;;;;18.98;14.77;;;9.20;99.90;;;;;;5073840;28;20199;-79
2020/12/09 02:24:08;;;;;;;22.98;17.20;;;9.30;99.90;;;;;;5073921;28;20190;-79
2020/12/09 02:26:34;;;;;;;19.95;17.15;;;9.30;99.90;;;;;;5073895;28;20190;-77
2020/12/09 02:32:22;;;;;;;20.63;15.88;;;9.30;99.90;;;;;;5073982;28;20178;-77
2020/12/09 02:34:48;;;;;;;20.35;15.57;;;9.30;99.90;;;;;;5073716;28;20194;-77
2020/12/09 02:37:16;;;;;;;22.27;16.10;;;9.30;99.90;;;;;;5073596;28;20211;-77
2020/12/09 02:39:42;;;;;;;21.77;16.00;;;9.40;99.90;;;;;;5073755;28;20582;-77
2020/12/09 02:42:08;;;;;;;18.60;15.55;;;9.40;99.90;;;;;;5073814;28;20550;-77
2020/12/09 02:44:34;;;;;;;20.73;16.90;;;9.40;99.90;;;;;;5073496;28;20201;-79
2020/12/09 02:47:01;;;;;;;22.98;15.80;;;9.40;99.90;;;;;;5073435;28;20564;-77
2020/12/09 02:49:27;;;;;;;20.80;15.88;;;9.40;99.90;;;;;;5073513;28;20297;-76
2020/12/09 02:51:53;;;;;;;18.58;15.60;;;9.50;99.90;;;;;;5072712;28;20218;-77
2020/12/09 02:54:20;;;;;;;17.55;14.23;;;9.50;99.90;;;;;;5073404;28;20206;-76
2020/12/09 02:56:47;;;;;;;22.95;16.15;;;9.50;99.90;;;;;;5073382;28;20202;-77
2020/12/09 02:59:13;;;;;;;20.40;14.32;;;9.50;99.90;;;;;;5073318;28;20226;-77
2020/12/09 03:01:40;;;;;;;20.27;14.70;;;9.40;99.90;;;;;;5073576;28;20190;-80
2020/12/09 03:04:06;;;;;;;19.80;13.50;;;9.50;99.90;;;;;;5073336;28;20198;-77
2020/12/09 03:06:32;;;;;;;16.63;14.05;;;9.60;99.90;;;;;;5073085;28;20711;-77
2020/12/09 03:08:59;;;;;;;19.25;13.68;;;9.70;99.90;;;;;;5073479;28;20190;-79
2020/12/09 03:11:26;;;;;;;17.65;13.50;;;9.60;99.90;;;;;;5073287;28;20194;-77
2020/12/09 03:13:52;;;;;;;16.50;13.27;;;9.50;99.90;;;;;;5073298;28;20212;-78
2020/12/09 03:16:18;;;;;;;15.60;13.48;;;9.60;99.90;;;;;;5073251;28;20198;-78
2020/12/09 03:18:45;;;;;;;16.10;13.40;;;9.60;99.90;;;;;;5073060;28;20225;-77
2020/12/09 03:21:11;;;;;;;16.85;12.27;;;9.70;99.90;;;;;;5073172;28;20201;-77
2020/12/09 03:27:00;;;;;;;15.52;13.10;;;9.70;99.90;;;;;;5073437;28;20640;-79
2020/12/09 03:29:26;;;;;;;22.50;12.48;;;9.70;99.90;;;;;;5073323;28;20206;-77
2020/12/09 03:35:15;;;;;;;15.55;12.27;;;9.80;99.90;;;;;;5073054;28;20180;-77
2020/12/09 03:37:41;;;;;;;14.55;11.73;;;9.70;99.90;;;;;;5073206;28;20201;-80
2020/12/09 03:40:07;;;;;;;14.60;12.93;;;9.80;99.90;;;;;;5072884;28;20221;-77
2020/12/09 03:42:34;;;;;;;15.30;12.55;;;9.80;99.90;;;;;;5072870;28;20650;-77
2020/12/09 03:45:01;;;;;;;15.38;13.77;;;9.80;99.90;;;;;;5072829;28;20197;-77
2020/12/09 03:54:11;;;;;;;14.52;12.15;;;9.90;99.90;;;;;;5062471;28;20735;-77
2020/12/09 03:57:14;;;;;;;15.55;12.07;;;9.80;99.90;;;;;;5072426;28;20203;-77
2020/12/09 03:59:41;;;;;;;16.20;12.57;;;9.90;99.90;;;;;;5072800;28;20316;-77
2020/12/09 04:02:23;;;;;;;13.02;11.50;;;10.10;99.90;;;;;;5073041;28;20193;-79
2020/12/09 04:07:36;;;;;;;14.18;12.68;;;10.10;99.90;;;;;;5076290;28;20703;-77
2020/12/09 04:10:03;;;;;;;16.73;12.68;;;10.10;99.90;;;;;;5076531;28;20216;-77
2020/12/09 04:12:29;;;;;;;17.30;13.60;;;10.10;99.90;;;;;;5076393;28;20198;-77
2020/12/09 04:18:18;;;;;;;15.70;13.65;;;10.30;99.90;;;;;;5076644;28;20642;-80
2020/12/09 04:20:54;;;;;;;13.88;12.23;;;10.20;99.90;;;;;;5075975;28;20668;-77
2020/12/09 04:23:20;;;;;;;15.85;13.68;;;10.20;99.90;;;;;;5075946;28;20198;-77
2020/12/09 04:25:46;;;;;;;13.40;12.02;;;10.20;99.90;;;;;;5076334;28;20194;-77
2020/12/09 04:28:12;;;;;;;20.58;13.73;;;10.20;99.90;;;;;;5076357;28;20191;-77
2020/12/09 04:31:22;;;;;;;20.08;14.43;;;10.20;99.90;;;;;;5075746;28;20214;-77
2020/12/09 04:33:55;;;;;;;18.58;12.98;;;10.30;99.90;;;;;;5075840;28;20198;-78
2020/12/09 04:36:22;;;;;;;16.25;12.48;;;10.30;99.90;;;;;;5075974;28;20218;-77
2020/12/09 04:38:49;;;;;;;17.08;12.60;;;10.30;99.90;;;;;;5075845;28;20558;-77
2020/12/09 04:41:15;;;;;;;17.73;12.45;;;10.30;99.90;;;;;;5075889;28;20222;-78
2020/12/09 04:43:42;;;;;;;16.17;13.15;;;10.30;99.90;;;;;;5075945;28;20198;-79
2020/12/09 04:46:08;;;;;;;18.60;12.57;;;10.40;99.90;;;;;;5075989;28;20637;-77
2020/12/09 04:48:41;;;;;;;16.33;13.15;;;10.40;99.90;;;;;;5075746;28;20545;-77
2020/12/09 04:51:42;;;;;;;17.15;12.73;;;10.40;99.90;;;;;;5075815;28;20206;-77
2020/12/09 04:54:15;;;;;;;16.98;13.80;;;10.40;99.90;;;;;;5056360;28;20225;-78
2020/12/09 04:56:54;;;;;;;23.98;14.80;;;10.30;99.90;;;;;;5075629;28;20195;-79
2020/12/09 04:59:24;;;;;;;18.38;13.15;;;10.40;99.90;;;;;;5075527;28;20267;-78
2020/12/09 05:02:02;;;;;;;22.10;14.27;;;10.40;99.90;;;;;;5074438;28;20275;-78
2020/12/09 05:04:31;;;;;;;19.75;13.65;;;10.30;99.90;;;;;;5075579;28;20198;-77
2020/12/09 05:06:59;;;;;;;17.40;13.98;;;10.30;99.90;;;;;;5075382;28;20253;-77
2020/12/09 05:09:29;;;;;;;18.00;14.55;;;10.30;99.90;;;;;;5075572;28;20214;-76
2020/12/09 05:12:19;;;;;;;19.00;14.52;;;10.30;99.90;;;;;;5075048;28;20553;-77
2020/12/09 05:14:47;;;;;;;18.40;15.50;;;10.30;99.90;;;;;;5074273;28;20190;-77
2020/12/09 05:17:16;;;;;;;17.83;14.77;;;10.30;99.90;;;;;;5075217;28;20194;-77
2020/12/09 05:19:43;;;;;;;18.67;14.30;;;10.30;99.90;;;;;;5075097;28;20248;-80
2020/12/09 05:22:14;;;;;;;17.58;13.98;;;10.40;99.90;;;;;;5075221;28;20547;-76
2020/12/09 05:24:41;;;;;;;20.13;13.93;;;10.40;99.90;;;;;;5075122;28;20198;-78
2020/12/09 05:27:08;;;;;;;19.60;14.98;;;10.40;99.90;;;;;;5074991;28;20205;-77
2020/12/09 05:29:34;;;;;;;18.38;14.77;;;10.40;99.90;;;;;;5075118;28;20202;-79
2020/12/09 05:32:02;;;;;;;21.02;14.75;;;10.40;99.90;;;;;;5075188;28;20194;-78
2020/12/09 05:34:30;;;;;;;20.83;14.50;;;10.30;99.90;;;;;;5074998;28;20550;-77
2020/12/09 05:37:00;;;;;;;16.40;14.32;;;10.30;99.90;;;;;;5074752;28;20218;-80
2020/12/09 05:39:27;;;;;;;19.38;14.60;;;10.30;99.90;;;;;;5074944;28;20230;-77
2020/12/09 05:41:54;;;;;;;20.48;14.27;;;10.20;99.90;;;;;;5074979;28;20202;-77
2020/12/09 05:44:22;;;;;;;16.67;13.80;;;10.10;99.90;;;;;;5074534;28;20665;-78
2020/12/09 05:46:59;;;;;;;21.17;15.27;;;10.10;99.90;;;;;;5074741;28;20650;-78
2020/12/09 05:49:27;;;;;;;22.05;15.15;;;10.20;99.90;;;;;;5074644;28;20652;-77
2020/12/09 05:52:07;;;;;;;18.83;14.32;;;10.20;99.90;;;;;;5074541;28;20190;-77
2020/12/09 05:54:35;;;;;;;19.27;14.20;;;10.20;99.90;;;;;;5074356;28;20259;-77
2020/12/09 06:00:23;;;;;;;24.40;16.13;;;10.20;99.90;;;;;;5074270;28;20577;-78
2020/12/09 06:06:18;;;;;;;18.05;15.52;;;10.20;99.90;;;;;;5074282;28;20201;-80
2020/12/09 06:08:46;;;;;;;22.90;15.50;;;10.20;99.90;;;;;;5074309;28;20209;-76
2020/12/09 06:11:14;;;;;;;19.35;15.45;;;10.20;99.90;;;;;;5074133;28;20214;-77
2020/12/09 06:13:41;;;;;;;20.50;14.68;;;10.30;99.90;;;;;;5074104;28;20209;-78
2020/12/09 06:16:10;;;;;;;16.10;13.25;;;10.30;99.90;;;;;;5074216;28;20209;-77
2020/12/09 06:18:37;;;;;;;25.67;16.20;;;10.30;99.90;;;;;;5074072;28;20199;-79
2020/12/09 06:21:05;;;;;;;18.05;13.63;;;10.40;99.90;;;;;;5073828;28;20225;-78
2020/12/09 06:23:32;;;;;;;18.23;14.60;;;10.40;99.90;;;;;;5073838;28;20194;-79
2020/12/09 06:26:03;;;;;;;20.92;15.90;;;10.40;99.90;;;;;;5073700;28;20194;-77
2020/12/09 06:28:31;;;;;;;19.30;13.95;;;10.30;99.90;;;;;;5073846;28;20194;-77
2020/12/09 06:31:08;;;;;;;20.15;14.27;;;10.40;99.90;;;;;;5073880;28;20548;-79
2020/12/09 06:33:37;;;;;;;23.13;16.25;;;10.40;99.90;;;;;;5074253;28;20201;-77
2020/12/09 06:36:11;;;;;;;18.65;15.07;;;10.40;99.90;;;;;;5073477;28;20328;-77
2020/12/09 06:38:37;;;;;;;20.83;15.88;;;10.40;99.90;;;;;;5073853;28;20195;-77
2020/12/09 06:41:12;;;;;;;19.75;14.75;;;10.40;99.90;;;;;;5073740;28;20222;-77
2020/12/09 06:43:39;;;;;;;22.42;18.10;;;10.40;99.90;;;;;;5078701;28;20185;-77
2020/12/09 06:46:05;;;;;;;24.02;17.48;;;10.30;99.90;;;;;;5083723;28;20634;-78
2020/12/09 06:48:39;;;;;;;20.55;16.85;;;10.30;99.90;;;;;;5082444;28;20202;-78
2020/12/09 06:51:40;;;;;;;22.00;17.25;;;10.30;99.90;;;;;;5072112;28;20194;-77
2020/12/09 06:54:15;;;;;;;21.63;17.05;;;10.20;99.90;;;;;;5011255;28;20233;-78
2020/12/09 06:56:43;;;;;;;24.10;18.38;;;10.20;99.90;;;;;;5011814;28;20287;-79
2020/12/09 06:59:28;;;;;;;23.35;17.67;;;10.30;99.90;;;;;;5043560;28;20201;-78
2020/12/09 07:02:02;;;;;;;23.92;17.85;;;10.30;99.90;;;;;;5073378;28;20530;-79
2020/12/09 07:05:02;;;;;;;21.25;16.48;;;10.30;99.90;;;;;;5073293;28;20201;-78
2020/12/09 07:07:30;;;;;;;20.58;16.02;;;10.30;99.90;;;;;;5072816;28;20194;-79
2020/12/09 07:09:57;;;;;;;23.80;17.65;;;10.30;99.90;;;;;;5073614;28;20189;-77
2020/12/09 07:12:24;;;;;;;21.15;15.90;;;10.40;99.90;;;;;;5079856;28;20201;-78
2020/12/09 07:14:50;;;;;;;22.02;16.73;;;10.40;99.90;;;;;;5073226;28;20197;-78
2020/12/09 07:17:17;;;;;;;19.75;15.02;;;10.30;99.90;;;;;;5082154;28;20198;-78
2020/12/09 07:19:43;;;;;;;24.80;16.23;;;10.30;99.90;;;;;;5092471;28;20319;-78
2020/12/09 07:22:10;;;;;;;29.13;16.80;;;10.30;99.90;;;;;;5091966;28;20556;-78
2020/12/09 07:24:37;;;;;;;25.65;17.80;;;10.30;99.90;;;;;;5091865;28;20679;-78
2020/12/09 07:27:03;;;;;;;23.92;17.73;;;10.30;99.90;;;;;;5091715;28;20199;-78
2020/12/09 07:29:30;;;;;;;24.13;18.30;;;10.40;99.90;;;;;;5091883;28;20201;-78
2020/12/09 07:32:00;;;;;;;21.95;16.98;;;10.40;99.90;;;;;;5091798;28;20530;-78
2020/12/09 07:34:27;;;;;;;29.02;15.63;;;10.40;99.90;;;;;;5092169;28;20199;-78
2020/12/09 07:36:54;;;;;;;25.33;17.50;;;10.40;99.90;;;;;;5093584;28;20308;-78
2020/12/09 07:39:32;;;;;;;27.20;16.80;;;10.40;99.90;;;;;;5097498;28;20194;-78
2020/12/09 07:42:00;;;;;;;23.88;17.35;;;10.40;99.90;;;;;;5097225;28;20197;-78
2020/12/09 07:44:28;;;;;;;21.02;15.35;;;10.50;99.90;;;;;;5097234;28;20197;-78
2020/12/09 07:46:55;;;;;;;23.50;17.33;;;10.50;99.90;;;;;;5097079;28;20292;-78
2020/12/09 07:49:22;;;;;;;21.30;16.23;;;10.50;99.90;;;;;;5097195;28;20190;-78
2020/12/09 07:51:49;;;;;;;22.13;16.17;;;10.50;99.90;;;;;;5097234;28;20193;-78
2020/12/09 07:54:16;;;;;;;24.80;18.30;;;10.50;99.90;;;;;;5096879;28;20796;-78
2020/12/09 07:56:42;;;;;;;22.25;17.10;;;10.50;99.90;;;;;;5096958;28;20197;-78
2020/12/09 07:59:11;;;;;;;24.85;18.25;;;10.50;99.90;;;;;;5096986;28;20197;-78
2020/12/09 08:01:37;;;;;;;23.08;18.30;;;10.50;99.90;;;;;;5096796;28;20217;-78
2020/12/09 08:04:04;;;;;;;25.27;18.35;;;10.40;99.90;;;;;;5096794;28;20230;-78
2020/12/09 08:06:30;;;;;;;23.83;17.55;;;10.40;99.90;;;;;;5096557;28;20218;-78
2020/12/09 08:08:56;;;;;;;28.52;18.80;;;10.30;99.90;;;;;;5096782;28;20194;-78
2020/12/09 08:11:22;;;;;;;22.98;17.95;;;10.30;99.90;;;;;;5096859;28;20206;-78
2020/12/09 08:13:49;;;;;;;26.08;17.67;;;10.30;99.90;;;;;;5096758;28;20205;-78
2020/12/09 08:16:16;;;;;;;27.38;19.42;;;10.30;99.90;;;;;;5096532;28;20193;-78
2020/12/09 08:18:43;;;;;;;27.05;19.67;;;10.30;99.90;;;;;;5096564;28;20276;-78
2020/12/09 08:21:11;;;;;;;34.63;18.63;;;10.40;99.90;;;;;;5096502;28;20316;-78
2020/12/09 08:23:39;;;;;;;31.75;19.83;;;10.40;99.90;;;;;;5096756;28;20306;-78
2020/12/09 08:26:05;;;;;;;25.63;19.00;;;10.40;99.90;;;;;;5096326;28;20569;-78
2020/12/09 08:28:33;;;;;;;30.20;19.05;;;10.40;99.90;;;;;;5096276;28;20198;-78
2020/12/09 08:30:59;;;;;;;24.10;17.65;;;10.50;99.90;;;;;;5096307;28;20189;-78
2020/12/09 08:33:27;;;;;;;27.55;20.00;;;10.50;99.90;;;;;;5096315;28;20194;-78
2020/12/09 08:35:58;;;;;;;30.38;21.45;;;10.50;99.90;;;;;;5096162;28;20213;-78
2020/12/09 08:38:33;;;;;;;37.58;24.08;;;10.50;99.90;;;;;;5096341;28;20194;-78
2020/12/09 08:41:01;;;;;;;39.40;24.50;;;10.50;99.90;;;;;;5096041;28;20232;-78
2020/12/09 08:43:30;;;;;;;35.92;22.65;;;10.40;99.90;;;;;;5095956;28;20202;-78
2020/12/09 08:45:56;;;;;;;36.70;22.98;;;10.40;99.90;;;;;;5095769;28;20217;-78
2020/12/09 08:48:23;;;;;;;33.15;23.50;;;10.40;99.90;;;;;;5095115;28;20200;-78
2020/12/09 08:50:51;;;;;;;37.55;24.77;;;10.40;99.90;;;;;;5095410;28;20545;-78
2020/12/09 08:53:19;;;;;;;36.45;25.25;;;10.40;99.90;;;;;;5095498;28;20225;-78
2020/12/09 08:55:46;;;;;;;33.95;24.42;;;10.30;99.90;;;;;;5095966;28;20198;-78
2020/12/09 08:58:14;;;;;;;32.78;24.90;;;10.30;99.90;;;;;;5095880;28;20205;-78
2020/12/09 09:00:41;;;;;;;35.80;25.70;;;10.30;99.90;;;;;;5095719;28;20221;-78
2020/12/09 09:03:10;;;;;;;42.15;27.55;;;10.20;99.90;;;;;;5095879;28;20197;-78
2020/12/09 09:05:37;;;;;;;44.40;26.75;;;10.20;99.90;;;;;;5095479;28;20209;-78
2020/12/09 09:08:04;;;;;;;44.75;28.45;;;10.10;99.90;;;;;;5095542;28;20205;-78
2020/12/09 09:10:30;;;;;;;39.63;27.23;;;10.00;99.90;;;;;;5095559;28;20197;-78
2020/12/09 09:12:57;;;;;;;44.95;29.33;;;10.10;99.90;;;;;;5095598;28;20549;-78
2020/12/09 09:15:24;;;;;;;45.45;28.63;;;10.10;99.90;;;;;;5095399;28;20205;-78
2020/12/09 09:17:50;;;;;;;42.80;27.13;;;10.10;99.90;;;;;;5095340;28;20193;-80
2020/12/09 09:20:16;;;;;;;45.53;26.80;;;10.10;99.90;;;;;;5095327;28;20225;-78
2020/12/09 09:26:05;;;;;;;40.60;27.02;;;10.10;99.90;;;;;;5095561;28;20197;-80
2020/12/09 09:28:31;;;;;;;41.28;25.17;;;10.00;99.90;;;;;;5095304;28;20638;-80
2020/12/09 09:30:57;;;;;;;40.20;26.55;;;10.10;99.90;;;;;;5095180;28;20205;-80
2020/12/09 09:33:23;;;;;;;42.38;28.77;;;10.20;99.90;;;;;;5095186;28;20194;-80
2020/12/09 09:35:51;;;;;;;45.33;29.80;;;10.20;99.90;;;;;;5086086;28;20244;-79
2020/12/09 09:38:17;;;;;;;49.17;30.88;;;10.20;99.90;;;;;;5084048;28;20190;-79
2020/12/09 09:40:43;;;;;;;47.53;30.33;;;10.20;99.90;;;;;;5082847;28;20289;-80
2020/12/09 09:43:10;;;;;;;45.65;28.55;;;10.30;99.90;;;;;;5081639;28;20198;-79
2020/12/09 09:45:36;;;;;;;53.92;32.20;;;10.30;99.90;;;;;;5082934;28;20194;-81
2020/12/09 09:48:03;;;;;;;51.17;32.65;;;10.30;99.90;;;;;;5091880;28;20192;-78
2020/12/09 09:50:29;;;;;;;48.75;33.10;;;10.20;99.90;;;;;;5088672;28;20186;-79
2020/12/09 09:52:55;;;;;;;50.28;32.30;;;10.20;99.90;;;;;;5082888;28;20186;-79
2020/12/09 09:55:31;;;;;;;49.67;33.50;;;10.20;99.90;;;;;;5082742;28;20182;-79
2020/12/09 09:57:57;;;;;;;48.40;30.70;;;10.10;99.90;;;;;;5077713;28;20200;-79
2020/12/09 10:00:24;;;;;;;46.97;31.13;;;10.10;99.90;;;;;;5073989;28;20226;-80
2020/12/09 10:02:50;;;;;;;41.38;30.58;;;10.00;99.90;;;;;;5074319;28;20637;-80
2020/12/09 10:05:17;;;;;;;51.78;31.65;;;10.00;99.90;;;;;;5074117;28;20254;-79
2020/12/09 10:08:11;;;;;;;49.90;32.20;;;10.00;99.90;;;;;;5074226;28;20220;-79
2020/12/09 10:10:37;;;;;;;50.08;29.52;;;10.00;99.90;;;;;;5074054;28;20716;-80
2020/12/09 10:13:03;;;;;;;54.42;33.90;;;10.00;99.90;;;;;;5074199;28;20545;-79
2020/12/09 10:15:30;;;;;;;54.55;32.75;;;9.80;99.90;;;;;;5073885;28;20198;-79
2020/12/09 10:17:56;;;;;;;42.35;31.15;;;9.80;99.90;;;;;;5074018;28;20201;-79
2020/12/09 10:20:23;;;;;;;50.00;30.65;;;9.80;99.90;;;;;;5076107;28;20218;-80
2020/12/09 10:22:49;;;;;;;54.40;32.20;;;9.80;99.90;;;;;;5074159;28;20194;-80
2020/12/09 10:25:15;;;;;;;54.05;33.72;;;9.90;99.90;;;;;;5073947;28;20190;-79
2020/12/09 10:27:41;;;;;;;54.28;33.25;;;9.80;99.90;;;;;;5077351;28;20201;-79
2020/12/09 10:30:08;;;;;;;58.35;33.00;;;9.80;99.90;;;;;;5082855;28;20190;-80
2020/12/09 10:32:35;;;;;;;48.10;30.60;;;9.90;99.90;;;;;;5073835;28;20195;-80
2020/12/09 10:35:02;;;;;;;54.20;32.88;;;9.90;99.90;;;;;;5073788;28;20218;-79
2020/12/09 10:37:34;;;;;;;57.55;33.30;;;9.90;99.90;;;;;;5075798;28;20190;-79
2020/12/09 10:40:00;;;;;;;50.40;31.42;;;9.90;99.90;;;;;;5093977;28;20228;-79
2020/12/09 10:42:27;;;;;;;51.13;33.28;;;9.90;99.90;;;;;;5094036;28;20196;-79
2020/12/09 10:45:34;;;;;;;51.60;33.53;;;10.00;99.90;;;;;;5093588;28;20201;-79
2020/12/09 10:48:01;;;;;;;57.55;35.38;;;10.00;99.90;;;;;;5093628;28;20202;-78
2020/12/09 10:50:27;;;;;;;66.43;35.30;;;10.00;99.90;;;;;;5094044;28;20553;-80
2020/12/09 10:52:54;;;;;;;54.80;35.50;;;10.00;99.90;;;;;;5093689;28;20201;-80
2020/12/09 10:55:23;;;;;;;57.85;34.53;;;10.00;99.90;;;;;;5093709;28;20284;-79
2020/12/09 10:57:49;;;;;;;55.95;34.40;;;10.00;99.90;;;;;;5093877;28;20193;-80
2020/12/09 11:00:15;;;;;;;55.08;34.30;;;10.00;99.90;;;;;;5093875;28;20224;-80
2020/12/09 11:02:42;;;;;;;56.40;32.88;;;9.90;99.90;;;;;;5093546;28;20193;-80
2020/12/09 11:05:09;;;;;;;62.00;35.88;;;10.00;99.90;;;;;;5093605;28;20221;-80
2020/12/09 11:07:35;;;;;;;55.55;33.08;;;10.00;99.90;;;;;;5093651;28;20574;-81
2020/12/09 11:13:23;;;;;;;48.15;31.25;;;10.00;99.90;;;;;;5092794;28;20180;-80
2020/12/09 11:15:49;;;;;;;48.60;32.97;;;10.00;99.90;;;;;;5093604;28;20216;-80
2020/12/09 11:18:16;;;;;;;53.25;30.27;;;10.00;99.90;;;;;;5093541;28;20201;-80
2020/12/09 11:20:43;;;;;;;51.83;31.10;;;10.00;99.90;;;;;;5093199;28;20225;-80
2020/12/09 11:23:29;;;;;;;52.53;33.05;;;10.10;99.90;;;;;;5093260;28;20197;-80
2020/12/09 11:25:55;;;;;;;48.30;31.33;;;10.10;99.90;;;;;;5092912;28;20250;-80
2020/12/09 11:28:22;;;;;;;47.10;29.90;;;10.10;99.90;;;;;;5093078;28;20190;-80
2020/12/09 11:30:48;;;;;;;42.70;27.38;;;10.10;99.90;;;;;;5093516;28;20194;-81
2020/12/09 11:33:14;;;;;;;44.65;28.25;;;10.10;99.90;;;;;;5093502;28;20196;-80
2020/12/09 11:35:40;;;;;;;41.63;27.58;;;10.10;99.90;;;;;;5093172;28;20225;-80
2020/12/09 11:44:51;;;;;;;42.20;25.98;;;10.20;99.90;;;;;;5093210;28;20184;-81
2020/12/09 11:47:18;;;;;;;46.35;28.35;;;10.20;99.90;;;;;;5093425;28;20194;-81
2020/12/09 11:49:44;;;;;;;39.78;28.35;;;10.20;99.90;;;;;;5093155;28;20541;-80
2020/12/09 11:52:10;;;;;;;42.08;28.13;;;10.20;99.90;;;;;;5093218;28;20201;-80
2020/12/09 11:54:37;;;;;;;39.15;26.58;;;10.20;99.90;;;;;;5092928;28;20226;-80
2020/12/09 11:57:03;;;;;;;37.88;26.55;;;10.20;99.90;;;;;;5087066;28;20194;-82
2020/12/09 11:59:30;;;;;;;34.80;25.98;;;10.20;99.90;;;;;;5087181;28;20658;-82
2020/12/09 12:01:58;;;;;;;39.85;25.58;;;10.20;99.90;;;;;;5081440;28;20221;-82
2020/12/09 12:04:24;;;;;;;36.42;25.73;;;10.20;99.90;;;;;;5084192;28;20192;-82
2020/12/09 12:06:50;;;;;;;35.85;26.55;;;10.10;99.90;;;;;;5082204;28;20210;-82
2020/12/09 12:09:17;;;;;;;36.15;24.80;;;10.20;99.90;;;;;;5077527;28;20529;-81
2020/12/09 12:11:43;;;;;;;40.70;27.35;;;10.20;99.90;;;;;;5078690;28;20192;-82
2020/12/09 12:14:09;;;;;;;39.88;26.95;;;10.20;99.90;;;;;;5082207;28;20186;-81
2020/12/09 12:16:36;;;;;;;40.55;26.20;;;10.10;99.90;;;;;;5082880;28;20198;-82
2020/12/09 12:19:04;;;;;;;42.78;26.88;;;10.10;99.90;;;;;;5081106;28;20193;-82
2020/12/09 12:21:30;;;;;;;37.45;25.75;;;10.10;99.90;;;;;;5083805;28;20680;-82
2020/12/09 12:23:56;;;;;;;39.13;26.50;;;10.10;99.90;;;;;;5094790;28;20329;-82
2020/12/09 12:26:23;;;;;;;36.88;26.05;;;10.10;99.90;;;;;;5093579;28;20191;-81
2020/12/09 12:28:50;;;;;;;38.38;24.60;;;10.10;99.90;;;;;;5096388;28;20194;-83
2020/12/09 12:31:18;;;;;;;36.47;24.35;;;9.90;99.90;;;;;;5096520;28;20193;-82
2020/12/09 12:33:45;;;;;;;44.28;26.25;;;9.90;99.90;;;;;;5096358;28;20194;-82
2020/12/09 12:36:13;;;;;;;37.05;27.77;;;9.90;99.90;;;;;;5096185;28;20218;-82
2020/12/09 12:38:40;;;;;;;40.90;27.98;;;9.90;99.90;;;;;;5096338;28;20535;-80
2020/12/09 12:41:07;;;;;;;38.40;24.27;;;9.90;99.90;;;;;;5096229;28;20249;-82
2020/12/09 12:43:33;;;;;;;37.30;25.55;;;10.00;99.90;;;;;;5096315;28;20205;-83
2020/12/09 12:46:00;;;;;;;37.38;24.10;;;9.90;99.90;;;;;;5096045;28;20204;-82
2020/12/09 12:48:26;;;;;;;34.83;25.00;;;10.00;99.90;;;;;;5096046;28;20197;-83
2020/12/09 12:50:52;;;;;;;37.38;24.17;;;10.00;99.90;;;;;;5096152;28;20205;-82
2020/12/09 12:53:19;;;;;;;34.85;25.23;;;10.00;99.90;;;;;;5095822;28;20236;-81
2020/12/09 12:55:46;;;;;;;39.42;24.98;;;10.10;99.90;;;;;;5095997;28;20215;-82
2020/12/09 12:58:12;;;;;;;39.20;27.60;;;10.10;99.90;;;;;;5096038;28;20292;-83
2020/12/09 13:00:38;;;;;;;40.58;27.00;;;10.10;99.90;;;;;;5095886;28;20225;-81
2020/12/09 13:03:04;;;;;;;36.22;24.98;;;10.20;99.90;;;;;;5095700;28;20200;-81
2020/12/09 13:05:30;;;;;;;35.75;24.45;;;10.10;99.90;;;;;;5095473;28;20217;-82
2020/12/09 13:07:57;;;;;;;41.35;27.65;;;10.10;99.90;;;;;;5095788;28;20661;-82
2020/12/09 13:10:24;;;;;;;43.17;28.17;;;10.10;99.90;;;;;;5095768;28;20200;-82
2020/12/09 13:12:51;;;;;;;35.90;25.63;;;10.10;99.90;;;;;;5095412;28;20197;-82
2020/12/09 13:15:18;;;;;;;36.17;22.55;;;10.10;99.90;;;;;;5095645;28;20298;-82
2020/12/09 13:17:44;;;;;;;35.08;25.60;;;10.20;99.90;;;;;;5095429;28;20200;-82
2020/12/09 13:20:10;;;;;;;41.20;26.25;;;10.20;99.90;;;;;;5095365;28;20200;-82
2020/12/09 13:22:37;;;;;;;38.50;24.70;;;10.20;99.90;;;;;;5095429;28;20197;-81
2020/12/09 13:25:03;;;;;;;37.78;23.52;;;10.20;99.90;;;;;;5095242;28;20246;-82
2020/12/09 13:27:30;;;;;;;44.20;26.48;;;10.20;99.90;;;;;;5095362;28;20207;-82
2020/12/09 13:29:57;;;;;;;34.80;23.90;;;10.20;99.90;;;;;;5095121;28;20198;-82
2020/12/09 13:32:23;;;;;;;37.83;24.58;;;10.20;99.90;;;;;;5095264;28;20201;-81
2020/12/09 13:34:49;;;;;;;35.75;24.05;;;10.30;99.90;;;;;;5094295;28;20680;-82